Time;durP1;ratioP1;P1;durP2;ratioP2;P2;SDS_P1;SDS_P2;PMS_P1;PMS_P2;Temp;Humidity;BMP_temperature;BMP_pressure;BME280_temperature;BME280_humidity;BME280_pressure;Samples;Min_cycle;Max_cycle;Signal;HPM_P1;HPM_P2
2023/10/25 00:01:57;;;;;;;11.43;6.70;;;;;;;;;;5025684;28;20438;-77
2023/10/25 00:04:27;;;;;;;8.85;6.88;;;;;;;;;;5013117;28;21013;-78
2023/10/25 00:06:55;;;;;;;13.52;7.95;;;;;;;;;;5017186;28;20442;-78
2023/10/25 00:09:22;;;;;;;11.25;7.93;;;;;;;;;;5053769;28;20466;-78
2023/10/25 00:11:50;;;;;;;15.70;8.70;;;;;;;;;;5054002;28;20514;-78
2023/10/25 00:14:18;;;;;;;12.03;8.23;;;;;;;;;;5053858;28;20427;-78
2023/10/25 00:16:45;;;;;;;14.65;7.88;;;;;;;;;;5029535;28;21015;-81
2023/10/25 00:19:12;;;;;;;13.73;8.27;;;;;;;;;;5033037;28;20435;-81
2023/10/25 00:21:40;;;;;;;18.85;9.43;;;;;;;;;;5054521;28;20441;-80
2023/10/25 00:24:07;;;;;;;15.30;8.85;;;;;;;;;;5022534;28;20809;-81
2023/10/25 00:26:37;;;;;;;12.35;7.68;;;;;;;;;;5026822;28;20439;-81
2023/10/25 00:29:04;;;;;;;11.83;7.80;;;;;;;;;;5013331;28;20431;-80
2023/10/25 00:31:39;;;;;;;11.88;7.05;;;;;;;;;;5023621;28;20471;-81
2023/10/25 00:34:07;;;;;;;9.95;6.63;;;;;;;;;;5058071;28;20543;-81
2023/10/25 00:36:34;;;;;;;11.00;7.55;;;;;;;;;;5057171;28;20441;-80
2023/10/25 00:39:05;;;;;;;12.07;7.28;;;;;;;;;;5038591;28;20437;-80
2023/10/25 00:41:32;;;;;;;12.27;7.30;;;;;;;;;;5016665;28;20448;-81
2023/10/25 00:44:02;;;;;;;11.40;6.88;;;;;;;;;;5013489;28;20919;-81
2023/10/25 00:46:30;;;;;;;8.65;6.05;;;;;;;;;;5049778;28;20446;-80
2023/10/25 00:48:58;;;;;;;8.07;6.13;;;;;;;;;;5024107;28;20907;-80
2023/10/25 00:51:26;;;;;;;10.50;5.65;;;;;;;;;;5029296;28;20448;-81
2023/10/25 00:53:54;;;;;;;8.87;5.63;;;;;;;;;;5032308;28;20434;-81
2023/10/25 00:56:24;;;;;;;11.50;6.20;;;;;;;;;;5059658;28;20427;-80
2023/10/25 00:58:52;;;;;;;10.27;6.93;;;;;;;;;;5032798;28;20469;-80
2023/10/25 01:01:20;;;;;;;10.55;7.03;;;;;;;;;;5056565;28;20445;-81
2023/10/25 01:03:49;;;;;;;14.05;7.00;;;;;;;;;;5050103;28;20575;-80
2023/10/25 01:06:25;;;;;;;12.68;7.13;;;;;;;;;;5062942;28;20431;-80
2023/10/25 01:08:55;;;;;;;10.93;6.20;;;;;;;;;;5049095;28;20432;-80
2023/10/25 01:11:23;;;;;;;11.68;6.70;;;;;;;;;;5022783;28;20439;-80
2023/10/25 01:13:50;;;;;;;23.30;8.63;;;;;;;;;;5059422;28;20459;-80
2023/10/25 01:16:20;;;;;;;23.60;8.33;;;;;;;;;;5063844;28;20426;-81
2023/10/25 01:18:47;;;;;;;24.70;8.57;;;;;;;;;;5026966;28;20435;-80
2023/10/25 01:21:15;;;;;;;17.02;7.22;;;;;;;;;;5022083;28;20438;-81
2023/10/25 01:23:42;;;;;;;23.47;8.33;;;;;;;;;;5052984;28;20426;-81
2023/10/25 01:26:12;;;;;;;24.98;8.25;;;;;;;;;;5025544;28;20850;-80
2023/10/25 01:28:39;;;;;;;36.13;8.93;;;;;;;;;;5054338;28;20956;-81
2023/10/25 01:31:09;;;;;;;60.60;11.02;;;;;;;;;;5061708;28;20443;-80
2023/10/25 01:33:37;;;;;;;29.95;9.32;;;;;;;;;;5051234;28;20525;-81
2023/10/25 01:36:04;;;;;;;52.20;10.88;;;;;;;;;;5024922;28;20979;-79
2023/10/25 01:38:32;;;;;;;46.97;9.88;;;;;;;;;;5019966;28;20766;-81
2023/10/25 01:40:59;;;;;;;46.17;9.88;;;;;;;;;;5049996;28;20469;-81
2023/10/25 01:43:28;;;;;;;80.45;12.38;;;;;;;;;;5046180;28;20428;-81
2023/10/25 01:45:56;;;;;;;65.97;12.38;;;;;;;;;;5064241;28;20887;-80
2023/10/25 01:48:23;;;;;;;82.28;13.02;;;;;;;;;;5022801;28;20440;-80
2023/10/25 01:50:52;;;;;;;66.70;11.77;;;;;;;;;;5027574;28;20435;-81
2023/10/25 01:53:19;;;;;;;78.75;13.10;;;;;;;;;;5053228;28;20442;-81
2023/10/25 01:55:48;;;;;;;163.65;15.82;;;;;;;;;;5054378;28;20520;-81
2023/10/25 01:58:16;;;;;;;255.57;19.27;;;;;;;;;;5015520;28;20471;-81
2023/10/25 02:00:43;;;;;;;117.07;15.00;;;;;;;;;;5019738;28;20905;-80
2023/10/25 02:03:13;;;;;;;142.60;15.07;;;;;;;;;;5050756;28;21104;-81
2023/10/25 02:05:41;;;;;;;275.63;20.00;;;;;;;;;;5016792;28;20516;-80
2023/10/25 02:08:08;;;;;;;278.05;21.17;;;;;;;;;;5034824;28;20436;-80
2023/10/25 02:10:38;;;;;;;216.80;17.38;;;;;;;;;;5055500;28;20520;-80
2023/10/25 02:13:05;;;;;;;162.80;16.47;;;;;;;;;;5027663;28;20930;-81
2023/10/25 02:15:35;;;;;;;153.60;15.20;;;;;;;;;;5053855;28;20437;-80
2023/10/25 02:18:02;;;;;;;210.18;18.40;;;;;;;;;;5023637;28;20492;-80
2023/10/25 02:20:31;;;;;;;103.27;14.27;;;;;;;;;;5029264;28;20431;-81
2023/10/25 02:22:59;;;;;;;200.30;17.15;;;;;;;;;;5061008;28;20851;-79
2023/10/25 02:25:26;;;;;;;235.65;19.25;;;;;;;;;;5027336;28;20442;-80
2023/10/25 02:27:53;;;;;;;196.73;16.42;;;;;;;;;;5057052;28;20437;-79
2023/10/25 02:30:20;;;;;;;160.93;15.32;;;;;;;;;;5012516;28;20571;-79
2023/10/25 02:32:47;;;;;;;122.22;14.25;;;;;;;;;;5050942;28;20436;-79
2023/10/25 02:35:15;;;;;;;257.73;20.10;;;;;;;;;;5027785;28;20821;-79
2023/10/25 02:37:43;;;;;;;187.10;17.23;;;;;;;;;;5059482;28;20511;-81
2023/10/25 02:40:10;;;;;;;142.05;15.48;;;;;;;;;;5032796;28;20493;-80
2023/10/25 02:42:41;;;;;;;156.10;16.38;;;;;;;;;;5020561;28;20439;-79
2023/10/25 02:45:08;;;;;;;141.00;14.80;;;;;;;;;;5024313;28;20786;-80
2023/10/25 02:47:35;;;;;;;113.95;15.27;;;;;;;;;;5052384;28;20435;-80
2023/10/25 02:50:03;;;;;;;147.50;15.07;;;;;;;;;;5058122;28;20461;-80
2023/10/25 02:52:30;;;;;;;106.73;14.47;;;;;;;;;;5022880;28;20924;-80
2023/10/25 02:54:57;;;;;;;116.55;14.48;;;;;;;;;;5046509;28;20988;-80
2023/10/25 02:57:24;;;;;;;112.20;14.77;;;;;;;;;;5047684;28;21026;-80
2023/10/25 02:59:52;;;;;;;72.18;12.52;;;;;;;;;;5022937;28;20848;-81
2023/10/25 03:02:21;;;;;;;80.97;13.63;;;;;;;;;;5031137;28;20949;-80
2023/10/25 03:04:48;;;;;;;87.47;13.52;;;;;;;;;;5021843;28;20484;-80
2023/10/25 03:07:16;;;;;;;88.53;13.80;;;;;;;;;;5048994;28;21028;-80
2023/10/25 03:09:43;;;;;;;72.85;12.90;;;;;;;;;;5051083;28;20794;-81
2023/10/25 03:12:11;;;;;;;57.50;13.23;;;;;;;;;;5027329;28;20980;-80
2023/10/25 03:14:41;;;;;;;55.97;13.07;;;;;;;;;;5052998;28;20428;-80
2023/10/25 03:17:08;;;;;;;48.50;11.77;;;;;;;;;;5016851;28;20908;-80
2023/10/25 03:19:35;;;;;;;47.57;12.33;;;;;;;;;;5018551;28;20487;-80
2023/10/25 03:22:06;;;;;;;57.60;13.27;;;;;;;;;;5029211;28;20907;-81
2023/10/25 03:24:33;;;;;;;65.00;12.93;;;;;;;;;;5023486;28;20455;-81
2023/10/25 03:27:01;;;;;;;59.95;13.65;;;;;;;;;;5047706;28;20445;-80
2023/10/25 03:29:37;;;;;;;63.13;14.15;;;;;;;;;;5049519;28;20431;-80
2023/10/25 03:32:05;;;;;;;96.27;13.93;;;;;;;;;;5058210;28;20539;-80
2023/10/25 03:34:32;;;;;;;107.65;15.50;;;;;;;;;;5023147;28;20443;-80
2023/10/25 03:36:59;;;;;;;135.02;16.50;;;;;;;;;;5014171;28;21085;-80
2023/10/25 03:39:26;;;;;;;105.90;14.90;;;;;;;;;;5020819;28;20434;-80
2023/10/25 03:41:54;;;;;;;107.38;13.98;;;;;;;;;;5028323;28;20884;-80
2023/10/25 03:44:21;;;;;;;235.75;19.70;;;;;;;;;;5041470;28;20498;-80
2023/10/25 03:46:48;;;;;;;125.68;16.00;;;;;;;;;;5044141;28;20449;-80
2023/10/25 03:49:15;;;;;;;139.63;17.37;;;;;;;;;;5017213;28;20446;-80
2023/10/25 03:51:46;;;;;;;160.40;16.45;;;;;;;;;;5024243;28;20443;-80
2023/10/25 03:54:13;;;;;;;155.25;17.00;;;;;;;;;;5052381;28;20800;-81
2023/10/25 03:56:49;;;;;;;162.88;17.70;;;;;;;;;;5046940;28;20439;-80
2023/10/25 03:59:16;;;;;;;193.00;19.52;;;;;;;;;;5022600;28;20439;-80
2023/10/25 04:01:43;;;;;;;152.60;17.67;;;;;;;;;;5045916;28;20444;-80
2023/10/25 04:04:11;;;;;;;143.48;18.65;;;;;;;;;;5046342;28;20444;-81
2023/10/25 04:06:42;;;;;;;180.57;18.30;;;;;;;;;;5014729;28;20436;-80
2023/10/25 04:09:09;;;;;;;151.60;17.35;;;;;;;;;;5042488;28;20966;-80
2023/10/25 04:11:36;;;;;;;122.53;16.92;;;;;;;;;;5055856;28;20815;-80
2023/10/25 04:14:03;;;;;;;115.20;16.67;;;;;;;;;;5022247;28;20765;-80
2023/10/25 04:16:33;;;;;;;138.10;18.13;;;;;;;;;;5018274;28;20461;-80
2023/10/25 04:19:00;;;;;;;193.77;20.27;;;;;;;;;;5025025;28;20437;-80
2023/10/25 04:21:27;;;;;;;161.07;19.20;;;;;;;;;;5014786;28;21162;-81
2023/10/25 04:23:57;;;;;;;146.55;18.60;;;;;;;;;;5019770;28;20446;-80
2023/10/25 04:26:24;;;;;;;156.07;18.65;;;;;;;;;;5042893;28;20463;-80
2023/10/25 04:28:52;;;;;;;198.88;20.63;;;;;;;;;;5060727;28;20428;-81
2023/10/25 04:31:21;;;;;;;151.57;19.02;;;;;;;;;;5020242;28;20439;-81
2023/10/25 04:33:48;;;;;;;155.35;19.35;;;;;;;;;;5055447;28;20849;-81
2023/10/25 04:36:16;;;;;;;220.13;22.00;;;;;;;;;;5057024;28;20519;-81
2023/10/25 04:38:43;;;;;;;262.02;23.75;;;;;;;;;;5054221;28;20540;-81
2023/10/25 04:41:10;;;;;;;263.65;22.05;;;;;;;;;;5050758;28;20449;-81
2023/10/25 04:43:38;;;;;;;274.10;23.50;;;;;;;;;;5055743;28;21010;-81
2023/10/25 04:46:12;;;;;;;228.23;20.47;;;;;;;;;;5051006;28;20478;-81
2023/10/25 04:48:40;;;;;;;127.55;16.13;;;;;;;;;;5057433;28;20435;-81
2023/10/25 04:51:12;;;;;;;284.63;21.42;;;;;;;;;;5053151;28;20419;-81
2023/10/25 04:53:40;;;;;;;182.10;18.42;;;;;;;;;;5054772;28;20484;-81
2023/10/25 04:56:07;;;;;;;152.45;18.23;;;;;;;;;;5067079;28;20433;-81
2023/10/25 04:58:34;;;;;;;171.43;18.42;;;;;;;;;;5029355;28;20514;-81
2023/10/25 05:01:11;;;;;;;203.00;18.80;;;;;;;;;;5023704;28;20583;-81
2023/10/25 05:03:38;;;;;;;153.93;19.20;;;;;;;;;;5057755;28;20449;-81
2023/10/25 05:06:08;;;;;;;201.47;20.03;;;;;;;;;;5061113;28;20458;-81
2023/10/25 05:08:36;;;;;;;293.40;24.65;;;;;;;;;;5026503;28;20427;-81
2023/10/25 05:11:12;;;;;;;154.63;19.00;;;;;;;;;;5033467;28;20490;-81
2023/10/25 05:13:39;;;;;;;178.60;20.48;;;;;;;;;;5057241;28;20914;-81
2023/10/25 05:16:07;;;;;;;178.90;21.27;;;;;;;;;;5030711;28;20431;-80
2023/10/25 05:18:34;;;;;;;101.10;16.02;;;;;;;;;;5027355;28;20517;-80
2023/10/25 05:21:03;;;;;;;117.68;17.23;;;;;;;;;;5030998;28;20568;-79
2023/10/25 05:23:31;;;;;;;148.50;18.33;;;;;;;;;;5067025;28;20441;-80
2023/10/25 05:26:00;;;;;;;145.55;18.52;;;;;;;;;;5031581;28;21013;-79
2023/10/25 05:28:27;;;;;;;137.02;18.20;;;;;;;;;;5018843;28;20935;-80
2023/10/25 05:30:55;;;;;;;148.25;18.23;;;;;;;;;;5055854;28;20425;-80
2023/10/25 05:33:26;;;;;;;209.63;21.35;;;;;;;;;;5028658;28;20429;-80
2023/10/25 05:35:54;;;;;;;148.05;18.77;;;;;;;;;;5063710;28;20443;-81
2023/10/25 05:38:21;;;;;;;152.57;18.93;;;;;;;;;;5064512;28;20486;-80
2023/10/25 05:40:49;;;;;;;115.85;17.05;;;;;;;;;;5038475;28;20552;-79
2023/10/25 05:43:19;;;;;;;304.90;24.98;;;;;;;;;;5029003;28;20469;-80
2023/10/25 05:45:47;;;;;;;202.02;20.48;;;;;;;;;;5060517;28;20931;-80
2023/10/25 05:48:15;;;;;;;210.55;21.48;;;;;;;;;;5059460;28;20923;-80
2023/10/25 05:50:44;;;;;;;158.30;19.10;;;;;;;;;;5066083;28;20440;-80
2023/10/25 05:53:15;;;;;;;64.00;14.52;;;;;;;;;;5053571;28;20874;-81
2023/10/25 05:55:42;;;;;;;238.67;21.60;;;;;;;;;;5029672;28;20488;-81
2023/10/25 05:58:12;;;;;;;197.35;20.10;;;;;;;;;;5026735;28;20435;-79
2023/10/25 06:00:40;;;;;;;172.65;18.60;;;;;;;;;;5047857;28;20441;-80
2023/10/25 06:03:08;;;;;;;152.45;18.55;;;;;;;;;;5021230;28;20440;-81
2023/10/25 06:06:00;;;;;;;161.85;18.92;;;;;;;;;;5050262;28;20443;-80
2023/10/25 06:08:27;;;;;;;174.13;19.55;;;;;;;;;;5031633;28;20430;-81
2023/10/25 06:10:57;;;;;;;168.90;19.67;;;;;;;;;;5061689;28;20448;-81
2023/10/25 06:13:24;;;;;;;144.60;18.90;;;;;;;;;;5027532;28;20440;-81
2023/10/25 06:15:51;;;;;;;139.90;19.10;;;;;;;;;;5048324;28;20468;-81
2023/10/25 06:18:19;;;;;;;144.85;18.30;;;;;;;;;;5034458;28;20442;-81
2023/10/25 06:20:47;;;;;;;243.40;22.58;;;;;;;;;;5052368;28;20445;-81
2023/10/25 06:23:14;;;;;;;120.35;18.75;;;;;;;;;;5024695;28;20435;-81
2023/10/25 06:25:44;;;;;;;201.40;21.10;;;;;;;;;;5046977;28;20439;-81
2023/10/25 06:28:11;;;;;;;156.52;20.13;;;;;;;;;;5049437;28;20941;-80
2023/10/25 06:30:39;;;;;;;131.50;18.88;;;;;;;;;;5063068;28;20547;-82
2023/10/25 06:33:06;;;;;;;181.93;21.13;;;;;;;;;;5021251;28;20439;-81
2023/10/25 06:35:33;;;;;;;157.50;20.80;;;;;;;;;;5045054;28;20799;-81
2023/10/25 06:38:00;;;;;;;134.48;19.63;;;;;;;;;;5060693;28;20506;-81
2023/10/25 06:40:27;;;;;;;107.13;17.77;;;;;;;;;;5048794;28;20634;-81
2023/10/25 06:42:55;;;;;;;156.60;21.27;;;;;;;;;;5027902;28;20437;-81
2023/10/25 06:45:25;;;;;;;86.82;18.75;;;;;;;;;;5023869;28;20466;-80
2023/10/25 06:47:52;;;;;;;103.40;18.85;;;;;;;;;;5055099;28;20519;-81
2023/10/25 06:50:20;;;;;;;84.15;18.08;;;;;;;;;;5026846;28;20458;-82
2023/10/25 06:52:54;;;;;;;81.03;18.10;;;;;;;;;;5051967;28;20441;-80
2023/10/25 06:55:24;;;;;;;66.43;17.90;;;;;;;;;;5053394;28;20439;-81
2023/10/25 06:57:52;;;;;;;62.38;16.70;;;;;;;;;;5019742;28;20437;-81
2023/10/25 07:00:19;;;;;;;53.58;16.63;;;;;;;;;;5020412;28;20539;-80
2023/10/25 07:02:53;;;;;;;48.22;16.02;;;;;;;;;;5055221;28;20462;-80
2023/10/25 07:05:21;;;;;;;47.53;15.57;;;;;;;;;;5051325;28;21083;-80
2023/10/25 07:07:52;;;;;;;45.57;15.70;;;;;;;;;;5056875;28;20502;-81
2023/10/25 07:10:20;;;;;;;47.43;16.10;;;;;;;;;;5026405;28;20441;-82
2023/10/25 07:12:51;;;;;;;43.47;15.20;;;;;;;;;;5024548;28;20882;-81
2023/10/25 07:15:19;;;;;;;42.10;15.38;;;;;;;;;;5022085;28;20450;-81
2023/10/25 07:17:46;;;;;;;47.80;16.90;;;;;;;;;;5018635;28;20452;-80
2023/10/25 07:20:13;;;;;;;47.92;15.52;;;;;;;;;;5027658;28;21007;-82
2023/10/25 07:22:49;;;;;;;46.17;15.27;;;;;;;;;;5064630;28;20433;-82
2023/10/25 07:25:16;;;;;;;43.58;15.25;;;;;;;;;;5034501;28;20434;-81
2023/10/25 07:27:43;;;;;;;34.00;13.60;;;;;;;;;;5029293;28;20437;-81
2023/10/25 07:30:11;;;;;;;38.03;14.65;;;;;;;;;;5024960;28;20844;-82
2023/10/25 07:32:38;;;;;;;28.57;13.07;;;;;;;;;;5024137;28;20943;-81
2023/10/25 07:35:05;;;;;;;24.15;11.88;;;;;;;;;;5044727;28;20482;-83
2023/10/25 07:37:34;;;;;;;20.70;11.65;;;;;;;;;;5055066;28;20488;-82
2023/10/25 07:40:05;;;;;;;18.45;11.07;;;;;;;;;;5061456;28;20525;-81
2023/10/25 07:42:33;;;;;;;14.50;9.80;;;;;;;;;;5029226;28;20433;-82
2023/10/25 07:45:03;;;;;;;12.90;9.20;;;;;;;;;;5064721;28;21381;-83
2023/10/25 07:47:31;;;;;;;12.73;8.73;;;;;;;;;;5026952;28;20446;-82
2023/10/25 07:50:00;;;;;;;13.90;9.13;;;;;;;;;;5053823;28;20484;-81
2023/10/25 07:52:27;;;;;;;13.80;9.17;;;;;;;;;;5041210;28;20909;-82
2023/10/25 07:54:54;;;;;;;14.35;9.32;;;;;;;;;;5029534;28;21050;-81
2023/10/25 07:57:23;;;;;;;8.75;7.05;;;;;;;;;;5048772;28;20432;-81
2023/10/25 07:59:53;;;;;;;6.80;5.70;;;;;;;;;;5058174;28;20466;-81
2023/10/25 08:02:21;;;;;;;6.68;5.72;;;;;;;;;;5061574;28;20910;-81
2023/10/25 08:04:48;;;;;;;8.30;5.45;;;;;;;;;;5057963;28;20447;-80
2023/10/25 08:10:38;;;;;;;6.72;5.20;;;;;;;;;;5030187;28;20441;-81
2023/10/25 08:13:05;;;;;;;5.20;4.43;;;;;;;;;;5038769;28;20425;-81
2023/10/25 08:15:36;;;;;;;7.75;4.13;;;;;;;;;;5024937;28;20440;-80
2023/10/25 08:18:04;;;;;;;8.07;4.38;;;;;;;;;;5029610;28;20521;-82
2023/10/25 08:20:36;;;;;;;4.38;4.03;;;;;;;;;;5032536;28;20514;-81
2023/10/25 08:23:04;;;;;;;4.82;4.22;;;;;;;;;;5061492;28;20439;-83
2023/10/25 08:25:35;;;;;;;4.90;4.00;;;;;;;;;;5058680;28;20523;-83
2023/10/25 08:28:02;;;;;;;4.25;3.70;;;;;;;;;;5037547;28;20435;-82
2023/10/25 08:30:30;;;;;;;4.35;3.90;;;;;;;;;;5037155;28;20757;-83
2023/10/25 08:32:57;;;;;;;5.78;3.80;;;;;;;;;;5041935;28;20450;-79
2023/10/25 08:35:24;;;;;;;4.43;3.97;;;;;;;;;;5061846;28;20434;-82
2023/10/25 08:38:01;;;;;;;4.20;3.80;;;;;;;;;;5056957;28;20435;-82
2023/10/25 08:40:30;;;;;;;4.20;3.78;;;;;;;;;;5022948;28;20444;-85
2023/10/25 08:43:01;;;;;;;4.22;3.83;;;;;;;;;;5024770;28;20443;-82
2023/10/25 08:45:29;;;;;;;4.00;3.70;;;;;;;;;;5053077;28;20793;-81
2023/10/25 08:47:56;;;;;;;6.43;3.92;;;;;;;;;;5028018;28;20478;-83
2023/10/25 08:50:23;;;;;;;4.30;3.80;;;;;;;;;;5053883;28;20435;-82
2023/10/25 08:52:51;;;;;;;5.63;3.97;;;;;;;;;;5062337;28;20882;-83
2023/10/25 08:55:21;;;;;;;4.30;3.83;;;;;;;;;;5022518;28;20444;-81
2023/10/25 08:57:54;;;;;;;4.30;3.90;;;;;;;;;;5054756;28;20453;-83
2023/10/25 09:00:28;;;;;;;4.18;3.78;;;;;;;;;;5074945;28;20437;-83
2023/10/25 09:03:29;;;;;;;4.43;4.03;;;;;;;;;;5030360;28;20493;-83
2023/10/25 09:05:57;;;;;;;4.65;3.60;;;;;;;;;;5031248;28;20443;-83
2023/10/25 09:08:27;;;;;;;4.32;3.92;;;;;;;;;;5025509;28;20425;-82
2023/10/25 09:10:55;;;;;;;4.80;4.00;;;;;;;;;;5028090;28;20435;-83
2023/10/25 09:13:25;;;;;;;5.53;4.20;;;;;;;;;;5028467;28;20440;-81
2023/10/25 09:15:52;;;;;;;4.50;4.10;;;;;;;;;;5029363;28;20516;-82
2023/10/25 09:18:19;;;;;;;5.15;4.50;;;;;;;;;;5027046;28;20434;-83
2023/10/25 09:20:50;;;;;;;4.32;3.92;;;;;;;;;;5033930;28;20438;-82
2023/10/25 09:23:36;;;;;;;4.30;3.90;;;;;;;;;;5057666;28;20439;-83
2023/10/25 09:26:18;;;;;;;4.28;3.88;;;;;;;;;;5032330;28;20812;-83
2023/10/25 09:28:46;;;;;;;4.85;4.45;;;;;;;;;;5023666;28;21559;-82
2023/10/25 09:31:22;;;;;;;4.15;3.80;;;;;;;;;;5059263;28;20443;-82
2023/10/25 09:33:50;;;;;;;4.60;4.18;;;;;;;;;;5029453;28;20726;-81
2023/10/25 09:36:22;;;;;;;4.20;3.90;;;;;;;;;;5038099;28;20792;-82
2023/10/25 09:38:54;;;;;;;5.10;4.23;;;;;;;;;;5053198;28;20813;-80
2023/10/25 09:41:26;;;;;;;6.00;4.53;;;;;;;;;;5059131;28;20444;-82
2023/10/25 09:44:00;;;;;;;6.65;5.30;;;;;;;;;;5057528;28;20434;-79
2023/10/25 09:46:30;;;;;;;4.90;4.38;;;;;;;;;;5027890;28;20425;-83
2023/10/25 09:48:58;;;;;;;5.30;4.35;;;;;;;;;;5027960;28;20427;-81
2023/10/25 09:51:38;;;;;;;5.10;4.60;;;;;;;;;;5058256;28;20473;-83
2023/10/25 09:54:12;;;;;;;5.10;4.70;;;;;;;;;;5063062;28;20518;-82
2023/10/25 09:56:39;;;;;;;7.03;5.22;;;;;;;;;;5030744;28;20662;-81
2023/10/25 09:59:10;;;;;;;5.97;4.82;;;;;;;;;;5031131;28;20944;-82
2023/10/25 10:01:38;;;;;;;8.77;5.57;;;;;;;;;;5056001;28;20437;-82
2023/10/25 10:04:26;;;;;;;7.15;5.45;;;;;;;;;;5023971;28;20457;-84
2023/10/25 10:06:56;;;;;;;6.47;5.50;;;;;;;;;;5052406;28;20506;-83
2023/10/25 10:09:30;;;;;;;6.68;5.60;;;;;;;;;;5028396;28;20522;-83
2023/10/25 10:12:00;;;;;;;7.88;5.93;;;;;;;;;;5063509;28;20431;-82
2023/10/25 10:14:35;;;;;;;7.45;5.82;;;;;;;;;;5055137;28;20814;-81
2023/10/25 10:17:09;;;;;;;8.10;5.40;;;;;;;;;;5027002;28;20498;-81
2023/10/25 10:19:40;;;;;;;5.95;5.10;;;;;;;;;;5057204;28;20437;-82
2023/10/25 10:22:18;;;;;;;6.53;5.55;;;;;;;;;;5026383;28;20469;-80
2023/10/25 10:25:05;;;;;;;7.25;5.65;;;;;;;;;;5028013;28;20453;-81
2023/10/25 10:27:51;;;;;;;7.40;5.97;;;;;;;;;;5058688;28;20516;-80
2023/10/25 10:30:30;;;;;;;7.43;5.88;;;;;;;;;;5052718;28;20436;-79
2023/10/25 10:32:57;;;;;;;8.68;5.85;;;;;;;;;;5056161;28;20925;-81
2023/10/25 10:35:31;;;;;;;6.38;5.70;;;;;;;;;;5028845;28;20493;-81
2023/10/25 10:37:59;;;;;;;6.43;5.75;;;;;;;;;;5016801;28;20518;-81
2023/10/25 10:40:27;;;;;;;6.47;5.60;;;;;;;;;;5041908;28;20544;-81
2023/10/25 10:42:54;;;;;;;7.50;5.53;;;;;;;;;;5015379;28;20487;-81
2023/10/25 10:45:22;;;;;;;6.38;5.78;;;;;;;;;;5047998;28;20513;-81
2023/10/25 10:47:51;;;;;;;9.13;6.13;;;;;;;;;;5018084;28;20800;-81
2023/10/25 10:50:20;;;;;;;8.35;5.50;;;;;;;;;;5047011;28;20440;-81
2023/10/25 10:52:48;;;;;;;7.00;5.47;;;;;;;;;;5012539;28;20516;-81
2023/10/25 10:55:17;;;;;;;8.25;6.05;;;;;;;;;;5045885;28;20433;-81
2023/10/25 10:57:47;;;;;;;8.32;5.90;;;;;;;;;;5051073;28;20435;-81
2023/10/25 11:00:34;;;;;;;7.17;5.83;;;;;;;;;;5042408;28;20455;-81
2023/10/25 11:03:02;;;;;;;7.65;5.75;;;;;;;;;;5023228;28;20446;-81
2023/10/25 11:05:36;;;;;;;7.30;5.63;;;;;;;;;;5019647;28;20527;-81
2023/10/25 11:08:08;;;;;;;7.60;5.57;;;;;;;;;;5050632;28;20932;-80
2023/10/25 11:10:39;;;;;;;6.57;5.88;;;;;;;;;;5018535;28;20474;-80
2023/10/25 11:13:10;;;;;;;11.73;6.53;;;;;;;;;;5019177;28;20983;-81
2023/10/25 11:15:38;;;;;;;8.10;6.45;;;;;;;;;;5020888;28;20463;-81
2023/10/25 11:18:07;;;;;;;7.97;6.38;;;;;;;;;;5045184;28;20429;-81
2023/10/25 11:20:35;;;;;;;8.48;6.00;;;;;;;;;;5048667;28;20520;-81
2023/10/25 11:23:05;;;;;;;8.23;6.00;;;;;;;;;;5041640;28;20870;-81
2023/10/25 11:25:33;;;;;;;6.68;5.90;;;;;;;;;;5008471;28;20850;-81
2023/10/25 11:28:00;;;;;;;7.47;5.50;;;;;;;;;;5018051;28;20979;-80
2023/10/25 11:30:50;;;;;;;6.15;5.47;;;;;;;;;;5041000;28;20511;-81
2023/10/25 11:33:19;;;;;;;17.07;11.97;;;;;;;;;;5015393;28;20439;-81
2023/10/25 11:35:47;;;;;;;7.00;5.68;;;;;;;;;;5048408;28;20449;-82
2023/10/25 11:38:14;;;;;;;6.57;4.88;;;;;;;;;;5044409;28;20436;-81
2023/10/25 11:40:43;;;;;;;5.18;4.70;;;;;;;;;;5014358;28;20466;-81
2023/10/25 11:43:13;;;;;;;4.45;3.80;;;;;;;;;;5042591;28;20435;-81
2023/10/25 11:45:41;;;;;;;5.05;3.90;;;;;;;;;;5017141;28;20935;-82
2023/10/25 11:48:09;;;;;;;4.03;3.65;;;;;;;;;;5016442;28;20780;-80
2023/10/25 11:50:46;;;;;;;3.20;3.00;;;;;;;;;;5040419;28;20931;-82
2023/10/25 11:53:14;;;;;;;2.90;2.70;;;;;;;;;;5034041;28;20939;-79
2023/10/25 11:55:41;;;;;;;3.50;2.55;;;;;;;;;;5017318;28;20433;-81
2023/10/25 11:58:12;;;;;;;2.88;2.67;;;;;;;;;;5002963;28;20984;-81
2023/10/25 12:00:39;;;;;;;2.97;2.38;;;;;;;;;;5013192;28;20442;-81
2023/10/25 12:03:06;;;;;;;2.80;2.20;;;;;;;;;;5023679;28;20787;-81
2023/10/25 12:05:34;;;;;;;2.20;2.00;;;;;;;;;;5021718;28;20442;-81
2023/10/25 12:08:01;;;;;;;1.75;1.65;;;;;;;;;;5011644;28;20444;-81
2023/10/25 12:10:30;;;;;;;2.03;1.77;;;;;;;;;;5019437;28;20780;-81
2023/10/25 12:12:57;;;;;;;2.17;1.97;;;;;;;;;;5009235;28;20447;-82
2023/10/25 12:15:25;;;;;;;2.20;2.00;;;;;;;;;;5016636;28;21040;-81
2023/10/25 12:17:52;;;;;;;1.83;1.73;;;;;;;;;;5022277;28;20423;-82
2023/10/25 12:20:19;;;;;;;2.00;1.90;;;;;;;;;;5015426;28;20433;-81
2023/10/25 12:22:55;;;;;;;2.38;2.10;;;;;;;;;;5013106;28;20433;-81
2023/10/25 12:25:23;;;;;;;2.50;1.90;;;;;;;;;;5013489;28;20519;-81
2023/10/25 12:27:50;;;;;;;1.80;1.70;;;;;;;;;;5026123;28;20528;-81
2023/10/25 12:30:17;;;;;;;1.95;1.77;;;;;;;;;;5023069;28;20434;-81
2023/10/25 12:32:44;;;;;;;2.03;1.60;;;;;;;;;;5026187;28;20610;-81
2023/10/25 12:35:12;;;;;;;1.98;1.83;;;;;;;;;;5012073;28;22162;-82
2023/10/25 12:37:39;;;;;;;2.80;1.95;;;;;;;;;;5021618;28;20437;-82
2023/10/25 12:40:10;;;;;;;2.15;2.00;;;;;;;;;;5042280;28;20521;-82
2023/10/25 12:42:42;;;;;;;3.50;2.05;;;;;;;;;;5018802;28;20510;-82
2023/10/25 12:45:10;;;;;;;2.70;2.10;;;;;;;;;;5022973;28;20450;-81
2023/10/25 12:47:37;;;;;;;3.65;1.90;;;;;;;;;;5013562;28;20445;-81
2023/10/25 12:50:05;;;;;;;4.25;1.55;;;;;;;;;;5022717;28;20475;-82
2023/10/25 12:52:33;;;;;;;2.10;1.90;;;;;;;;;;5010631;28;20452;-83
2023/10/25 12:55:00;;;;;;;2.28;1.55;;;;;;;;;;5045407;28;20516;-81
2023/10/25 12:57:28;;;;;;;1.33;1.23;;;;;;;;;;5050529;28;20549;-82
2023/10/25 12:59:55;;;;;;;1.52;1.30;;;;;;;;;;5048762;28;20475;-81
2023/10/25 13:02:22;;;;;;;2.55;1.20;;;;;;;;;;5021329;28;20444;-82
2023/10/25 13:04:52;;;;;;;1.10;1.10;;;;;;;;;;5016265;28;20595;-82
2023/10/25 13:07:22;;;;;;;1.50;1.25;;;;;;;;;;5024047;28;20943;-83
2023/10/25 13:09:49;;;;;;;4.18;1.67;;;;;;;;;;5043513;28;20490;-82
2023/10/25 13:12:16;;;;;;;1.40;1.30;;;;;;;;;;5018820;28;20500;-83
2023/10/25 13:14:47;;;;;;;1.50;1.40;;;;;;;;;;5028727;28;20434;-82
2023/10/25 13:17:15;;;;;;;1.38;1.27;;;;;;;;;;5017484;28;20450;-83
2023/10/25 13:19:47;;;;;;;1.60;1.50;;;;;;;;;;5015709;28;20432;-83
2023/10/25 13:22:14;;;;;;;1.63;1.52;;;;;;;;;;5050151;28;20466;-83
2023/10/25 13:24:41;;;;;;;2.70;1.58;;;;;;;;;;5026096;28;20473;-83
2023/10/25 13:27:09;;;;;;;1.90;1.80;;;;;;;;;;5023209;28;20506;-82
2023/10/25 13:29:38;;;;;;;2.00;1.80;;;;;;;;;;5035929;28;20432;-83
2023/10/25 13:32:06;;;;;;;2.40;1.90;;;;;;;;;;5036405;28;20437;-81
2023/10/25 13:34:33;;;;;;;1.92;1.83;;;;;;;;;;5028399;28;20441;-82
2023/10/25 13:37:00;;;;;;;2.28;1.90;;;;;;;;;;5021807;28;20500;-83
2023/10/25 13:39:30;;;;;;;2.65;1.90;;;;;;;;;;5051788;28;20540;-83
2023/10/25 13:41:57;;;;;;;2.10;1.90;;;;;;;;;;5021557;28;20882;-83
2023/10/25 13:44:25;;;;;;;2.25;2.05;;;;;;;;;;5055616;28;20921;-83
2023/10/25 13:46:52;;;;;;;2.27;2.17;;;;;;;;;;5053790;28;20523;-83
2023/10/25 13:49:19;;;;;;;2.23;2.03;;;;;;;;;;5034701;28;20585;-83
2023/10/25 13:51:46;;;;;;;2.30;1.60;;;;;;;;;;5046414;28;20436;-83
2023/10/25 13:54:14;;;;;;;2.85;2.00;;;;;;;;;;5054473;28;20486;-83
2023/10/25 13:56:44;;;;;;;2.03;1.83;;;;;;;;;;5035000;28;20475;-83
2023/10/25 13:59:12;;;;;;;2.10;2.00;;;;;;;;;;5039567;28;20578;-82
2023/10/25 14:02:12;;;;;;;2.00;1.90;;;;;;;;;;5031943;28;20460;-83
2023/10/25 14:04:39;;;;;;;1.83;1.77;;;;;;;;;;5050992;28;20441;-82
2023/10/25 14:07:06;;;;;;;1.77;1.63;;;;;;;;;;5064982;28;20433;-82
2023/10/25 14:09:34;;;;;;;1.60;1.50;;;;;;;;;;5036137;28;20917;-81
2023/10/25 14:12:04;;;;;;;1.65;1.50;;;;;;;;;;5028828;28;21248;-81
2023/10/25 14:14:31;;;;;;;1.40;1.30;;;;;;;;;;5033102;28;20704;-82
2023/10/25 14:16:59;;;;;;;1.60;1.50;;;;;;;;;;5026131;28;20432;-83
2023/10/25 14:19:26;;;;;;;1.60;1.50;;;;;;;;;;5058979;28;20437;-82
2023/10/25 14:21:54;;;;;;;2.55;1.52;;;;;;;;;;5023627;28;20431;-82
2023/10/25 14:24:21;;;;;;;1.60;1.50;;;;;;;;;;5055612;28;20431;-82
2023/10/25 14:26:50;;;;;;;1.77;1.67;;;;;;;;;;5024757;28;20524;-83
2023/10/25 14:29:19;;;;;;;2.22;2.10;;;;;;;;;;5053039;28;20497;-82
2023/10/25 14:31:46;;;;;;;2.83;1.98;;;;;;;;;;5060767;28;20430;-83
2023/10/25 14:34:13;;;;;;;2.03;1.90;;;;;;;;;;5029001;28;20931;-83
2023/10/25 14:36:43;;;;;;;1.90;1.80;;;;;;;;;;5064256;28;21284;-83
2023/10/25 14:39:13;;;;;;;2.70;1.83;;;;;;;;;;5056203;28;20436;-81
2023/10/25 14:41:40;;;;;;;2.17;2.00;;;;;;;;;;5019611;28;20520;-83